Terminal Aerodrome Forecast
Issued by NWS Sioux Falls, SD

Home | Current Version | Previous Version | Text Only | Print | Product List | Glossary On
Versions: 1 2 3 4 5 6 7 8 9 10 11 12 13 14 15 16 17 18 19 20 21 22 23 24 25 26 27 28 29 30 31 32 33 34
000
FTUS43 KFSD 252134 AAA
TAFSUX
TAF AMD
KSUX 252134Z 2522/2618 05010KT P6SM OVC009
     FM260500 02005KT 5SM BR OVC005
     FM261100 36005KT 4SM BR OVC003
     FM261500 36006KT P6SM OVC007=

USA.gov is the U.S. government's official web portal to all federal, state and local government web resources and services.